Time;durP1;ratioP1;P1;durP2;ratioP2;P2;SDS_P1;SDS_P2;PMS_P1;PMS_P2;Temp;Humidity;BMP_temperature;BMP_pressure;BME280_temperature;BME280_humidity;BME280_pressure;Samples;Min_cycle;Max_cycle;Signal;HPM_P1;HPM_P2
2023/03/27 00:01:06;;;;;;;8.85;1.35;;;4.10;99.90;;;;;;4951232;28;20136;-76
2023/03/27 00:03:32;;;;;;;9.30;1.40;;;4.10;99.90;;;;;;4999256;28;20496;-76
2023/03/27 00:06:04;;;;;;;8.82;1.30;;;4.00;99.90;;;;;;4999405;28;20042;-74
2023/03/27 00:08:31;;;;;;;5.63;1.23;;;4.00;99.90;;;;;;4998730;28;20457;-76
2023/03/27 00:10:57;;;;;;;6.25;1.10;;;4.20;99.90;;;;;;4997770;28;20132;-76
2023/03/27 00:13:23;;;;;;;6.28;1.30;;;4.00;99.90;;;;;;4983012;28;20160;-76
2023/03/27 00:15:50;;;;;;;4.93;1.20;;;4.00;99.90;;;;;;4998770;28;20058;-76
2023/03/27 00:18:16;;;;;;;5.38;1.30;;;4.00;99.90;;;;;;4999262;28;20093;-76
2023/03/27 00:20:42;;;;;;;5.10;1.30;;;4.00;99.90;;;;;;4982148;28;20053;-77
2023/03/27 00:23:08;;;;;;;3.50;1.23;;;4.00;99.90;;;;;;4998904;28;20153;-77
2023/03/27 00:25:34;;;;;;;4.80;1.20;;;4.00;99.90;;;;;;4998353;28;20153;-77
2023/03/27 00:28:00;;;;;;;7.47;1.30;;;5.40;99.90;;;;;;4998919;28;20090;-76
2023/03/27 00:30:28;;;;;;;6.80;1.08;;;4.00;99.90;;;;;;4966228;28;20049;-75
2023/03/27 00:32:56;;;;;;;4.45;1.30;;;4.00;99.90;;;;;;4982287;28;20058;-77
2023/03/27 00:35:23;;;;;;;6.95;1.15;;;4.00;99.90;;;;;;4982050;28;20081;-75
2023/03/27 00:37:49;;;;;;;7.80;1.38;;;4.00;99.90;;;;;;4998593;28;20145;-76
2023/03/27 00:40:16;;;;;;;10.20;1.58;;;4.00;99.90;;;;;;4998449;28;20124;-75
2023/03/27 00:42:46;;;;;;;5.78;1.20;;;4.00;99.90;;;;;;4981901;28;20050;-75
2023/03/27 00:45:21;;;;;;;4.18;1.20;;;4.50;99.90;;;;;;4997999;28;20497;-75
2023/03/27 00:47:52;;;;;;;5.07;1.30;;;4.00;99.90;;;;;;4998819;28;20494;-75
2023/03/27 00:50:22;;;;;;;7.15;1.92;;;4.10;99.90;;;;;;4982822;28;20128;-75
2023/03/27 00:52:59;;;;;;;5.32;1.30;;;4.10;99.90;;;;;;4997347;28;20056;-77
2023/03/27 00:55:29;;;;;;;7.80;1.27;;;4.10;99.90;;;;;;5005141;28;20104;-77
2023/03/27 00:58:02;;;;;;;11.23;1.63;;;4.10;99.90;;;;;;4998245;28;20137;-75
2023/03/27 01:00:31;;;;;;;;;;;4.30;99.90;;;;;;4999990;28;20120;-76
2023/03/27 01:02:58;;;;;;;4.03;1.17;;;4.10;99.90;;;;;;4996894;28;19925;-77
2023/03/27 01:05:26;;;;;;;3.42;1.23;;;4.10;99.90;;;;;;4997594;28;20054;-76
2023/03/27 01:07:52;;;;;;;4.07;1.00;;;4.00;99.90;;;;;;4998292;28;20065;-76
2023/03/27 01:10:19;;;;;;;12.95;1.20;;;4.20;99.90;;;;;;4998034;28;20042;-76
2023/03/27 01:13:06;;;;;;;3.63;0.90;;;3.80;99.90;;;;;;4997344;28;20535;-78
2023/03/27 01:15:57;;;;;;;2.85;0.82;;;3.70;99.90;;;;;;4997515;28;20408;-78
2023/03/27 01:18:31;;;;;;;3.72;1.13;;;3.70;99.90;;;;;;4981823;28;20061;-77
2023/03/27 01:21:42;;;;;;;2.53;0.80;;;3.60;99.90;;;;;;4982614;28;20096;-77
2023/03/27 01:24:37;;;;;;;6.28;1.23;;;3.60;99.90;;;;;;4971098;28;20452;-78
2023/03/27 01:27:36;;;;;;;4.22;1.00;;;3.60;99.90;;;;;;4975118;28;20064;-77
2023/03/27 01:30:05;;;;;;;5.97;1.25;;;3.60;99.90;;;;;;5000039;28;20508;-78
2023/03/27 01:33:05;;;;;;;4.78;1.10;;;3.60;99.90;;;;;;4999387;28;20049;-77
2023/03/27 01:35:49;;;;;;;5.07;1.50;;;3.60;99.90;;;;;;4980450;28;20065;-77
2023/03/27 01:38:57;;;;;;;4.47;1.00;;;3.70;99.90;;;;;;5005852;28;20050;-77
2023/03/27 01:41:31;;;;;;;4.57;1.25;;;3.80;99.90;;;;;;4997677;28;20052;-76
2023/03/27 01:44:24;;;;;;;4.15;1.10;;;3.80;99.90;;;;;;4996479;28;20107;-78
2023/03/27 01:47:02;;;;;;;6.72;1.35;;;3.90;99.90;;;;;;4996346;28;20125;-80
2023/03/27 01:49:38;;;;;;;6.25;1.27;;;3.80;99.90;;;;;;4997577;28;20113;-77
2023/03/27 01:52:07;;;;;;;;;;;3.80;99.90;;;;;;4997532;28;20058;-77
2023/03/27 01:54:42;;;;;;;4.82;1.15;;;3.70;99.90;;;;;;5013081;28;19925;-76
2023/03/27 01:57:28;;;;;;;3.72;1.13;;;3.70;99.90;;;;;;4997702;28;20055;-77
2023/03/27 02:00:09;;;;;;;7.95;1.63;;;3.70;99.90;;;;;;4989446;28;20129;-76
2023/03/27 02:02:38;;;;;;;9.75;1.35;;;3.70;99.90;;;;;;4997987;28;20058;-76
2023/03/27 02:05:17;;;;;;;4.78;1.45;;;3.90;99.90;;;;;;4980672;28;20042;-78
2023/03/27 02:07:51;;;;;;;11.73;1.70;;;3.60;99.90;;;;;;4996432;28;20622;-78
2023/03/27 02:10:22;;;;;;;11.65;2.42;;;3.70;99.90;;;;;;5005054;28;20104;-77
2023/03/27 02:12:55;;;;;;;7.32;1.33;;;3.80;99.90;;;;;;4997089;28;20062;-79
2023/03/27 02:15:32;;;;;;;6.65;1.40;;;3.80;99.90;;;;;;4997247;28;20050;-80
2023/03/27 02:18:04;;;;;;;7.70;1.48;;;3.80;99.90;;;;;;5005512;28;20050;-79
2023/03/27 02:20:31;;;;;;;5.05;1.38;;;3.80;99.90;;;;;;4989119;28;20137;-77
2023/03/27 02:23:00;;;;;;;6.45;1.33;;;3.80;99.90;;;;;;4981241;28;20727;-80
2023/03/27 02:25:31;;;;;;;6.28;1.27;;;3.80;99.90;;;;;;4980561;28;20588;-76
2023/03/27 02:28:05;;;;;;;4.97;1.40;;;4.00;99.90;;;;;;4996402;28;20108;-76
2023/03/27 02:30:41;;;;;;;5.63;1.35;;;3.80;99.90;;;;;;4998011;28;20064;-77
2023/03/27 02:33:18;;;;;;;9.35;1.60;;;3.70;99.90;;;;;;4997265;28;20050;-77
2023/03/27 02:35:59;;;;;;;9.20;1.55;;;3.80;99.90;;;;;;4980861;28;20053;-77
2023/03/27 02:38:34;;;;;;;6.07;1.52;;;3.80;99.90;;;;;;4996156;28;20122;-77
2023/03/27 02:41:21;;;;;;;7.38;2.13;;;3.80;99.90;;;;;;4996973;28;20058;-77
2023/03/27 02:44:09;;;;;;;3.97;1.30;;;3.80;99.90;;;;;;4997541;28;20139;-76
2023/03/27 02:46:53;;;;;;;7.72;1.65;;;3.90;99.90;;;;;;4996821;28;20058;-77
2023/03/27 02:49:26;;;;;;;5.82;2.00;;;3.90;99.90;;;;;;4997191;28;20152;-80
2023/03/27 02:52:21;;;;;;;9.25;2.22;;;3.90;99.90;;;;;;5013087;28;20215;-78
2023/03/27 02:54:58;;;;;;;11.20;1.92;;;3.90;99.90;;;;;;4991664;28;20527;-76
2023/03/27 02:57:27;;;;;;;6.80;1.42;;;4.00;99.90;;;;;;4997087;28;20045;-76
2023/03/27 02:59:57;;;;;;;5.20;1.70;;;3.90;99.90;;;;;;4998313;28;20077;-78
2023/03/27 03:02:31;;;;;;;8.15;1.50;;;3.90;99.90;;;;;;5001464;28;20464;-77
2023/03/27 03:05:06;;;;;;;6.30;1.40;;;4.00;99.90;;;;;;4992064;28;20046;-79
2023/03/27 03:07:33;;;;;;;10.80;1.67;;;3.90;99.90;;;;;;5000416;28;20054;-79
2023/03/27 03:10:00;;;;;;;6.97;1.98;;;3.90;99.90;;;;;;4999604;28;20415;-76
2023/03/27 03:12:26;;;;;;;6.03;1.70;;;3.90;99.90;;;;;;4968188;28;20049;-76
2023/03/27 03:14:52;;;;;;;7.35;1.50;;;3.90;99.90;;;;;;5000220;28;20079;-77
2023/03/27 03:17:18;;;;;;;3.40;1.58;;;3.90;99.90;;;;;;5000740;28;20057;-75
2023/03/27 03:19:43;;;;;;;5.35;1.30;;;3.90;99.90;;;;;;4999497;28;20053;-77
2023/03/27 03:22:10;;;;;;;6.32;1.75;;;3.90;99.90;;;;;;4984627;28;20103;-77
2023/03/27 03:24:36;;;;;;;5.72;1.60;;;4.00;99.90;;;;;;4983302;28;20042;-77
2023/03/27 03:27:03;;;;;;;5.88;1.77;;;4.30;99.90;;;;;;5000878;28;20055;-78
2023/03/27 03:29:34;;;;;;;4.00;1.58;;;3.90;99.90;;;;;;5000449;28;20046;-77
2023/03/27 03:32:00;;;;;;;5.60;2.13;;;3.90;99.90;;;;;;5000163;28;20050;-79
2023/03/27 03:34:26;;;;;;;7.45;1.70;;;4.00;99.90;;;;;;4968211;28;20053;-78
2023/03/27 03:36:54;;;;;;;7.43;1.55;;;5.20;99.90;;;;;;5001704;28;20089;-78
2023/03/27 03:39:20;;;;;;;8.60;2.13;;;4.00;99.90;;;;;;5002389;28;20062;-78
2023/03/27 03:41:46;;;;;;;6.45;1.27;;;4.30;99.90;;;;;;4986348;28;20057;-76
2023/03/27 03:44:12;;;;;;;6.18;1.30;;;4.00;99.90;;;;;;5003869;28;20038;-76
2023/03/27 03:46:38;;;;;;;11.27;1.80;;;4.10;99.90;;;;;;5001486;28;20053;-78
2023/03/27 03:49:04;;;;;;;5.85;1.25;;;4.00;99.90;;;;;;5001277;28;20073;-78
2023/03/27 03:51:31;;;;;;;4.50;1.30;;;4.00;99.90;;;;;;5000143;28;20057;-76
2023/03/27 03:53:56;;;;;;;4.90;1.25;;;4.20;99.90;;;;;;4992781;28;20053;-78
2023/03/27 03:56:23;;;;;;;5.80;1.40;;;3.90;99.90;;;;;;4971434;28;20043;-77
2023/03/27 03:58:49;;;;;;;8.68;1.30;;;3.70;99.90;;;;;;4999943;28;20050;-78
2023/03/27 04:01:19;;;;;;;7.85;1.30;;;3.70;99.90;;;;;;4969031;28;20498;-76
2023/03/27 04:03:45;;;;;;;4.22;1.30;;;4.30;99.90;;;;;;5000371;28;20065;-77
2023/03/27 04:06:11;;;;;;;7.90;1.58;;;3.40;99.90;;;;;;5000837;28;20049;-76
2023/03/27 04:08:38;;;;;;;6.85;1.40;;;3.40;99.90;;;;;;4999750;28;20113;-77
2023/03/27 04:11:04;;;;;;;4.82;1.27;;;3.30;99.90;;;;;;5001191;28;20054;-76
2023/03/27 04:13:30;;;;;;;7.65;1.35;;;3.20;99.90;;;;;;4991084;28;20046;-76
2023/03/27 04:16:00;;;;;;;6.88;1.50;;;3.20;99.90;;;;;;4999845;28;20054;-75
2023/03/27 04:18:29;;;;;;;10.07;1.80;;;3.20;99.90;;;;;;4999232;28;20054;-77
2023/03/27 04:20:57;;;;;;;4.88;1.30;;;3.20;99.90;;;;;;4984087;28;20054;-76
2023/03/27 04:23:29;;;;;;;8.05;1.48;;;3.20;99.90;;;;;;5000202;28;20054;-75
2023/03/27 04:25:58;;;;;;;3.70;1.63;;;3.20;99.90;;;;;;4984358;28;20617;-78
2023/03/27 04:28:33;;;;;;;6.43;1.20;;;3.30;99.90;;;;;;4997479;28;20141;-77
2023/03/27 04:31:05;;;;;;;10.05;1.90;;;3.30;99.90;;;;;;4998878;28;20496;-77
2023/03/27 04:33:33;;;;;;;4.85;1.30;;;3.40;99.90;;;;;;4998975;28;20050;-78
2023/03/27 04:35:59;;;;;;;6.03;1.23;;;3.50;99.90;;;;;;5007390;28;20057;-76
2023/03/27 04:38:26;;;;;;;5.70;1.33;;;3.50;99.90;;;;;;4982433;28;20133;-77
2023/03/27 04:40:53;;;;;;;5.75;1.60;;;3.60;99.90;;;;;;4998662;28;20058;-76
2023/03/27 04:43:20;;;;;;;5.70;1.60;;;3.60;99.90;;;;;;4982119;28;20050;-79
2023/03/27 04:45:47;;;;;;;4.85;0.90;;;3.60;99.90;;;;;;5014761;28;20046;-75
2023/03/27 04:48:14;;;;;;;3.72;1.20;;;3.70;99.90;;;;;;4996729;28;20054;-77
2023/03/27 04:50:43;;;;;;;8.02;1.50;;;3.60;99.90;;;;;;4997960;28;20064;-76
2023/03/27 04:53:09;;;;;;;5.70;1.15;;;3.60;99.90;;;;;;4998739;28;20289;-77
2023/03/27 04:55:36;;;;;;;9.30;1.60;;;3.60;99.90;;;;;;4998426;28;20054;-76
2023/03/27 04:58:06;;;;;;;7.53;1.58;;;3.60;99.90;;;;;;4981041;28;20055;-77
2023/03/27 05:00:32;;;;;;;7.85;1.33;;;3.60;99.90;;;;;;4997492;28;20053;-76
2023/03/27 05:02:59;;;;;;;4.15;1.10;;;3.60;99.90;;;;;;4982226;28;20492;-77
2023/03/27 05:05:26;;;;;;;6.93;1.60;;;3.70;99.90;;;;;;4998232;28;20085;-78
2023/03/27 05:07:52;;;;;;;3.90;1.20;;;3.80;99.90;;;;;;4998013;28;20403;-77
2023/03/27 05:10:18;;;;;;;5.65;1.10;;;3.80;99.90;;;;;;4996883;28;20050;-77
2023/03/27 05:12:46;;;;;;;5.72;1.20;;;3.70;99.90;;;;;;4998502;28;20141;-77
2023/03/27 05:15:13;;;;;;;2.92;0.82;;;3.70;99.90;;;;;;4981270;28;20065;-77
2023/03/27 05:17:40;;;;;;;4.10;0.90;;;3.60;99.90;;;;;;4966195;28;20065;-77
2023/03/27 05:20:13;;;;;;;5.65;0.95;;;3.60;99.90;;;;;;4973682;28;20054;-77
2023/03/27 05:22:40;;;;;;;7.22;1.67;;;3.60;99.90;;;;;;4997220;28;20082;-79
2023/03/27 05:25:07;;;;;;;3.63;1.20;;;3.60;99.90;;;;;;4997210;28;20157;-77
2023/03/27 05:27:33;;;;;;;3.78;1.27;;;3.60;99.90;;;;;;4998295;28;20554;-78
2023/03/27 05:30:00;;;;;;;12.25;1.65;;;3.60;99.90;;;;;;4997798;28;20056;-76
2023/03/27 05:32:26;;;;;;;7.05;1.20;;;3.20;99.90;;;;;;4997233;28;20133;-78
2023/03/27 05:34:53;;;;;;;5.80;1.33;;;3.70;99.90;;;;;;4998839;28;20042;-77
2023/03/27 05:37:22;;;;;;;6.07;1.50;;;3.70;99.90;;;;;;4981842;28;20046;-83
2023/03/27 05:39:48;;;;;;;7.95;1.27;;;3.70;99.90;;;;;;4997041;28;20047;-77
2023/03/27 05:42:20;;;;;;;7.65;1.40;;;3.70;99.90;;;;;;4982681;28;20065;-78
2023/03/27 05:44:45;;;;;;;2.75;0.85;;;3.70;99.90;;;;;;4997397;28;20062;-79
2023/03/27 05:47:13;;;;;;;1.27;0.52;;;3.70;99.90;;;;;;4980728;28;20120;-78
2023/03/27 05:49:39;;;;;;;1.98;0.60;;;3.60;99.90;;;;;;4980293;28;20360;-77
2023/03/27 05:52:05;;;;;;;3.20;0.90;;;3.50;99.90;;;;;;4982109;28;20480;-76
2023/03/27 05:54:31;;;;;;;4.43;0.77;;;3.50;99.90;;;;;;4997606;28;20082;-77
2023/03/27 05:56:56;;;;;;;2.75;0.63;;;3.40;99.90;;;;;;4998238;28;20089;-77
2023/03/27 05:59:22;;;;;;;2.22;0.80;;;3.40;99.90;;;;;;4980507;28;20133;-76
2023/03/27 06:01:49;;;;;;;1.90;0.70;;;3.40;99.90;;;;;;4979637;28;20046;-76
2023/03/27 06:04:16;;;;;;;3.97;1.00;;;3.40;99.90;;;;;;4997856;28;20053;-76
2023/03/27 06:06:43;;;;;;;3.55;0.80;;;3.40;99.90;;;;;;4997424;28;20053;-76
2023/03/27 06:09:09;;;;;;;3.58;0.85;;;3.40;99.90;;;;;;4981378;28;20058;-77
2023/03/27 06:11:35;;;;;;;4.78;0.80;;;3.40;99.90;;;;;;4996499;28;20517;-80
2023/03/27 06:14:01;;;;;;;3.90;0.73;;;3.30;99.90;;;;;;4981306;28;20054;-76
2023/03/27 06:16:27;;;;;;;4.72;0.95;;;3.30;99.90;;;;;;4965420;28;20057;-78
2023/03/27 06:18:52;;;;;;;5.95;0.90;;;3.40;99.90;;;;;;4980440;28;20041;-76
2023/03/27 06:21:24;;;;;;;4.78;1.00;;;3.40;99.90;;;;;;4999016;28;20444;-77
2023/03/27 06:23:50;;;;;;;7.32;1.40;;;3.60;99.90;;;;;;5007341;28;20050;-77
2023/03/27 06:26:17;;;;;;;3.40;1.15;;;3.90;99.90;;;;;;4999199;28;20066;-77
2023/03/27 06:28:43;;;;;;;1.63;0.80;;;3.40;99.90;;;;;;5014854;28;20069;-78
2023/03/27 06:31:09;;;;;;;6.13;1.20;;;3.40;99.90;;;;;;4996801;28;20055;-77
2023/03/27 06:33:35;;;;;;;5.28;0.90;;;3.50;99.90;;;;;;5013994;28;20516;-77
2023/03/27 06:36:00;;;;;;;3.65;0.93;;;3.50;99.90;;;;;;5000798;28;20050;-77
2023/03/27 06:38:29;;;;;;;3.45;1.00;;;3.50;99.90;;;;;;5000714;28;20072;-78
2023/03/27 06:40:55;;;;;;;3.17;0.90;;;4.00;99.90;;;;;;4983563;28;20054;-79
2023/03/27 06:43:21;;;;;;;6.22;1.17;;;3.50;99.90;;;;;;5001061;28;20045;-77
2023/03/27 06:45:49;;;;;;;6.15;1.00;;;3.60;99.90;;;;;;4981714;28;20056;-76
2023/03/27 06:48:16;;;;;;;4.70;1.42;;;3.60;99.90;;;;;;4985284;28;20049;-76
2023/03/27 06:50:44;;;;;;;6.50;1.00;;;3.40;99.90;;;;;;4984394;28;20087;-76
2023/03/27 06:53:10;;;;;;;6.22;1.17;;;3.70;99.90;;;;;;5000928;28;20523;-76
2023/03/27 06:55:36;;;;;;;5.70;1.10;;;3.70;99.90;;;;;;4967960;28;20046;-76
2023/03/27 06:58:05;;;;;;;4.20;1.30;;;3.80;99.90;;;;;;4983094;28;20054;-76
2023/03/27 07:00:34;;;;;;;1.92;0.80;;;3.80;99.90;;;;;;5000811;28;20121;-76
2023/03/27 07:03:08;;;;;;;4.97;1.13;;;4.00;99.90;;;;;;4998690;28;20052;-76
2023/03/27 07:05:36;;;;;;;6.45;1.17;;;4.10;99.90;;;;;;4985002;28;20066;-77
2023/03/27 07:08:08;;;;;;;6.63;1.23;;;4.10;99.90;;;;;;5000113;28;20055;-76
2023/03/27 07:10:35;;;;;;;4.55;1.50;;;4.10;99.90;;;;;;5000266;28;20147;-78
2023/03/27 07:13:01;;;;;;;6.45;1.25;;;3.90;99.90;;;;;;5006221;28;20074;-76
2023/03/27 07:15:27;;;;;;;8.95;1.40;;;4.00;99.90;;;;;;4984106;28;20084;-75
2023/03/27 07:17:57;;;;;;;6.63;2.03;;;3.50;99.90;;;;;;5002092;28;20492;-75
2023/03/27 07:20:26;;;;;;;5.65;1.15;;;3.40;99.90;;;;;;5000066;28;20061;-76
2023/03/27 07:22:54;;;;;;;9.13;1.77;;;3.40;99.90;;;;;;4983514;28;20054;-77
2023/03/27 07:25:20;;;;;;;8.18;1.58;;;3.30;99.90;;;;;;4981523;28;20054;-78
2023/03/27 07:27:46;;;;;;;4.22;0.93;;;3.30;99.90;;;;;;5000962;28;20500;-77
2023/03/27 07:30:15;;;;;;;5.07;0.95;;;3.40;99.90;;;;;;4994511;28;20050;-75
2023/03/27 07:32:43;;;;;;;5.72;1.23;;;3.60;99.90;;;;;;4999927;28;20054;-76
2023/03/27 07:35:10;;;;;;;2.45;0.80;;;3.70;99.90;;;;;;4998914;28;20054;-76
2023/03/27 07:37:37;;;;;;;5.68;1.20;;;3.90;99.90;;;;;;4999440;28;20416;-76
2023/03/27 07:40:08;;;;;;;6.25;1.42;;;4.00;99.90;;;;;;4999503;28;20105;-75
2023/03/27 07:42:34;;;;;;;8.63;1.63;;;4.10;99.90;;;;;;4982929;28;20129;-74
2023/03/27 07:45:01;;;;;;;5.55;1.23;;;4.30;99.90;;;;;;4997951;28;20548;-77
2023/03/27 07:47:27;;;;;;;8.57;1.95;;;4.50;99.90;;;;;;5006108;28;20057;-78
2023/03/27 07:49:53;;;;;;;3.65;1.17;;;4.80;99.90;;;;;;4999253;28;20458;-77
2023/03/27 07:52:19;;;;;;;8.57;1.50;;;4.80;99.90;;;;;;5000371;28;20088;-80
2023/03/27 07:54:46;;;;;;;5.88;1.25;;;5.00;99.90;;;;;;4998977;28;20054;-78
2023/03/27 07:57:14;;;;;;;8.05;1.50;;;5.20;99.90;;;;;;4999191;28;20452;-77
2023/03/27 07:59:40;;;;;;;7.10;1.40;;;5.40;99.90;;;;;;4999262;28;20108;-78
2023/03/27 08:02:08;;;;;;;4.93;1.33;;;5.60;99.90;;;;;;4999097;28;20050;-76
2023/03/27 08:04:35;;;;;;;7.80;1.38;;;5.70;99.90;;;;;;4999421;28;20105;-77
2023/03/27 08:07:01;;;;;;;6.10;1.50;;;5.80;99.90;;;;;;4999998;28;20054;-76
2023/03/27 08:09:27;;;;;;;7.03;2.33;;;6.00;99.90;;;;;;4981319;28;20065;-77
2023/03/27 08:11:53;;;;;;;7.57;1.52;;;6.00;99.90;;;;;;4999452;28;20085;-78
2023/03/27 08:14:19;;;;;;;5.88;1.67;;;5.90;99.90;;;;;;4999551;28;20133;-80
2023/03/27 08:16:45;;;;;;;8.73;1.60;;;6.00;99.90;;;;;;4999081;28;20129;-77
2023/03/27 08:19:11;;;;;;;8.00;1.60;;;6.00;99.90;;;;;;4964731;28;20038;-77
2023/03/27 08:21:37;;;;;;;9.57;1.60;;;5.90;99.90;;;;;;4998927;28;20131;-76
2023/03/27 08:24:03;;;;;;;2.90;1.00;;;5.80;99.90;;;;;;4982934;28;20050;-78
2023/03/27 08:26:32;;;;;;;3.88;1.10;;;5.70;99.90;;;;;;4966523;28;20129;-78
2023/03/27 08:28:58;;;;;;;5.85;1.20;;;5.60;99.90;;;;;;4998250;28;20413;-77
2023/03/27 08:31:26;;;;;;;4.07;1.35;;;5.40;99.90;;;;;;4950340;28;20066;-76
2023/03/27 08:33:53;;;;;;;4.90;1.00;;;5.90;99.90;;;;;;4998409;28;20448;-77
2023/03/27 08:36:19;;;;;;;5.80;1.05;;;6.20;99.90;;;;;;4998672;28;20607;-78
2023/03/27 08:38:46;;;;;;;4.60;1.25;;;6.40;99.90;;;;;;4981916;28;20050;-76
2023/03/27 08:41:31;;;;;;;6.85;1.33;;;6.70;99.90;;;;;;4997803;28;20046;-75
2023/03/27 08:44:00;;;;;;;4.22;1.27;;;6.80;99.90;;;;;;5007165;28;20462;-77
2023/03/27 08:46:30;;;;;;;4.47;1.23;;;7.10;99.90;;;;;;5000655;28;20108;-77
2023/03/27 08:48:57;;;;;;;5.38;1.05;;;7.20;99.90;;;;;;5001531;28;20054;-78
2023/03/27 08:51:32;;;;;;;2.88;1.00;;;7.40;99.90;;;;;;4985872;28;20065;-76
2023/03/27 08:54:16;;;;;;;5.95;1.30;;;7.30;99.90;;;;;;5006626;28;20424;-77
2023/03/27 08:56:42;;;;;;;8.63;3.05;;;7.20;99.90;;;;;;4982762;28;20046;-77
2023/03/27 08:59:14;;;;;;;3.38;1.65;;;7.20;99.90;;;;;;4996649;28;20049;-76
2023/03/27 09:01:53;;;;;;;4.38;1.70;;;7.10;99.90;;;;;;4997933;28;20132;-76
2023/03/27 09:04:55;;;;;;;1.90;1.15;;;7.60;99.90;;;;;;4997308;28;20128;-79
2023/03/27 09:07:46;;;;;;;4.43;1.10;;;7.90;99.90;;;;;;4998351;28;20492;-77
2023/03/27 09:10:45;;;;;;;3.97;0.98;;;8.00;99.90;;;;;;5000151;28;20425;-77
2023/03/27 09:13:14;;;;;;;3.80;0.90;;;8.00;99.90;;;;;;4998427;28;20092;-77
2023/03/27 09:15:58;;;;;;;3.75;0.80;;;8.10;99.90;;;;;;4998833;28;20128;-77
2023/03/27 09:18:35;;;;;;;4.45;1.00;;;8.30;99.90;;;;;;4997980;28;20046;-77
2023/03/27 09:21:22;;;;;;;3.25;1.10;;;8.50;99.90;;;;;;4998353;28;20050;-75
2023/03/27 09:23:48;;;;;;;;;;;8.70;99.90;;;;;;4989202;28;20112;-77
2023/03/27 09:26:19;;;;;;;5.15;1.60;;;8.90;99.90;;;;;;4998553;28;19925;-76
2023/03/27 09:28:56;;;;;;;4.05;1.35;;;9.10;99.90;;;;;;4999114;28;20125;-77
2023/03/27 09:31:27;;;;;;;5.63;2.20;;;9.20;99.90;;;;;;4981019;28;20061;-77
2023/03/27 09:33:56;;;;;;;4.00;1.38;;;9.50;99.90;;;;;;4997686;28;20081;-77
2023/03/27 09:36:23;;;;;;;5.13;1.02;;;9.60;99.90;;;;;;4996364;28;20161;-79
2023/03/27 09:38:57;;;;;;;2.88;1.40;;;9.70;99.90;;;;;;4999009;28;20049;-80
2023/03/27 09:41:41;;;;;;;6.80;2.00;;;9.70;99.90;;;;;;4981700;28;20057;-80
2023/03/27 09:44:31;;;;;;;7.35;1.52;;;9.80;99.90;;;;;;4997493;28;20050;-77
2023/03/27 09:47:14;;;;;;;3.63;1.13;;;9.90;99.90;;;;;;4989789;28;20046;-77
2023/03/27 09:49:44;;;;;;;5.35;1.13;;;10.00;99.90;;;;;;4996031;28;20081;-76
2023/03/27 09:52:36;;;;;;;7.03;1.50;;;10.10;99.90;;;;;;4982358;28;20196;-75
2023/03/27 09:55:23;;;;;;;5.50;1.60;;;10.20;99.90;;;;;;4997217;28;20039;-77
2023/03/27 09:57:58;;;;;;;6.68;1.38;;;10.50;99.90;;;;;;4992623;28;20150;-78
2023/03/27 10:00:32;;;;;;;;;;;10.60;99.90;;;;;;4997986;28;20050;-77
2023/03/27 10:03:04;;;;;;;7.07;1.00;;;10.80;99.90;;;;;;5030809;28;19942;-77
2023/03/27 10:05:31;;;;;;;7.93;1.20;;;11.00;99.90;;;;;;4998262;28;20046;-78
2023/03/27 10:08:00;;;;;;;8.48;1.75;;;11.00;99.90;;;;;;4983100;28;20062;-78
2023/03/27 10:10:31;;;;;;;6.90;1.52;;;10.80;99.90;;;;;;4984050;28;20453;-76
2023/03/27 10:13:02;;;;;;;5.65;1.40;;;10.50;99.90;;;;;;5000774;28;20049;-76
2023/03/27 10:15:39;;;;;;;6.30;1.40;;;10.70;99.90;;;;;;4986713;28;20046;-77
2023/03/27 10:18:25;;;;;;;6.55;1.02;;;10.40;99.90;;;;;;4986590;28;20084;-77
2023/03/27 10:20:53;;;;;;;9.45;1.20;;;9.70;99.90;;;;;;5004641;28;20059;-78
2023/03/27 10:23:24;;;;;;;5.65;1.40;;;9.30;99.90;;;;;;5003330;28;20112;-78
2023/03/27 10:25:52;;;;;;;4.68;1.30;;;9.30;99.90;;;;;;5004258;28;20497;-77
2023/03/27 10:28:23;;;;;;;5.50;1.10;;;9.60;99.90;;;;;;4979714;28;20061;-77
2023/03/27 10:31:04;;;;;;;7.60;1.40;;;9.90;99.90;;;;;;5004877;28;20708;-78
2023/03/27 10:33:35;;;;;;;8.90;1.63;;;10.20;99.90;;;;;;5002054;28;20165;-77
2023/03/27 10:36:03;;;;;;;4.40;1.13;;;10.30;99.90;;;;;;5002820;28;20049;-78
2023/03/27 10:38:31;;;;;;;5.15;1.40;;;10.40;99.90;;;;;;4985787;28;20050;-78
2023/03/27 10:40:57;;;;;;;6.45;1.40;;;10.60;99.90;;;;;;5000565;28;20053;-79
2023/03/27 10:43:39;;;;;;;8.23;1.85;;;10.90;99.90;;;;;;4985522;28;20077;-77
2023/03/27 10:46:09;;;;;;;4.90;1.48;;;11.10;99.90;;;;;;5001573;28;20496;-77
2023/03/27 10:49:09;;;;;;;4.55;1.38;;;11.30;99.90;;;;;;4985238;28;20047;-77
2023/03/27 10:51:59;;;;;;;5.72;2.00;;;11.60;99.90;;;;;;5001756;28;20100;-77
2023/03/27 10:54:49;;;;;;;3.83;1.20;;;11.80;99.90;;;;;;5002505;28;20407;-77
2023/03/27 10:57:33;;;;;;;4.63;1.30;;;11.80;99.90;;;;;;5001443;28;20048;-77
2023/03/27 11:00:37;;;;;;;4.70;1.15;;;11.90;99.80;;;;;;5002340;28;20416;-76
2023/03/27 11:03:25;;;;;;;4.45;1.58;;;12.20;99.90;;;;;;5009329;28;20058;-77
2023/03/27 11:05:53;;;;;;;7.10;1.10;;;12.50;99.90;;;;;;5001915;28;20057;-76
2023/03/27 11:08:54;;;;;;;5.75;1.50;;;12.50;99.90;;;;;;5000244;28;20474;-79
2023/03/27 11:11:31;;;;;;;5.00;1.05;;;12.50;99.20;;;;;;4984104;28;20408;-78
2023/03/27 11:14:01;;;;;;;5.65;1.23;;;12.80;99.80;;;;;;4999842;28;20054;-78
2023/03/27 11:16:44;;;;;;;6.53;1.25;;;12.80;99.20;;;;;;4983763;28;20042;-78
2023/03/27 11:19:10;;;;;;;5.85;1.48;;;12.80;96.40;;;;;;4985053;28;20058;-77
2023/03/27 11:21:53;;;;;;;5.32;1.60;;;12.80;98.10;;;;;;5002158;28;20396;-78
2023/03/27 11:24:39;;;;;;;6.22;1.10;;;12.70;97.80;;;;;;5002131;28;20064;-81
2023/03/27 11:27:32;;;;;;;5.30;1.25;;;12.60;97.40;;;;;;4984605;28;20061;-77
2023/03/27 11:30:07;;;;;;;6.38;1.48;;;12.40;95.90;;;;;;4999831;28;20052;-77
2023/03/27 11:32:56;;;;;;;4.85;1.25;;;12.40;97.20;;;;;;4999200;28;20516;-77
2023/03/27 11:35:26;;;;;;;5.47;1.23;;;12.70;96.60;;;;;;4993868;28;20440;-77
2023/03/27 11:37:59;;;;;;;5.95;1.20;;;12.60;97.20;;;;;;4983284;28;20056;-77
2023/03/27 11:40:33;;;;;;;8.77;1.63;;;12.20;97.30;;;;;;5000407;28;20548;-79
2023/03/27 11:43:00;;;;;;;7.28;1.63;;;11.40;98.80;;;;;;4998638;28;20050;-77
2023/03/27 11:45:36;;;;;;;8.25;1.63;;;10.90;99.90;;;;;;4999506;28;20084;-77
2023/03/27 11:48:27;;;;;;;7.65;1.63;;;10.10;99.90;;;;;;4999760;28;20440;-76
2023/03/27 11:51:19;;;;;;;5.75;1.50;;;9.60;99.90;;;;;;4997126;28;20078;-81
2023/03/27 11:53:55;;;;;;;7.82;1.73;;;9.90;99.90;;;;;;4991383;28;20045;-78
2023/03/27 11:56:30;;;;;;;10.40;1.52;;;10.10;99.90;;;;;;4991979;28;20053;-78
2023/03/27 11:59:29;;;;;;;5.05;1.40;;;10.70;99.90;;;;;;4999080;28;20133;-80
2023/03/27 12:02:26;;;;;;;7.50;1.60;;;10.90;99.90;;;;;;5011277;28;20054;-76
2023/03/27 12:05:07;;;;;;;5.50;1.40;;;11.10;99.90;;;;;;4974952;28;20068;-77
2023/03/27 12:07:54;;;;;;;8.90;1.23;;;11.50;99.90;;;;;;4995566;28;20054;-76
2023/03/27 12:10:37;;;;;;;3.70;1.50;;;11.60;99.90;;;;;;4995594;28;20061;-77
2023/03/27 12:13:24;;;;;;;7.47;1.17;;;12.00;99.00;;;;;;4990843;28;20045;-76
2023/03/27 12:16:24;;;;;;;4.55;1.33;;;12.20;97.10;;;;;;4993449;28;20096;-77
2023/03/27 12:18:59;;;;;;;4.97;1.20;;;12.20;95.60;;;;;;4990090;28;20053;-78
2023/03/27 12:21:57;;;;;;;4.80;1.30;;;12.30;94.60;;;;;;4995122;28;20204;-76
2023/03/27 12:24:41;;;;;;;5.30;1.52;;;12.60;94.40;;;;;;4994459;28;20050;-77
2023/03/27 12:27:33;;;;;;;5.43;1.65;;;12.90;95.00;;;;;;4999076;28;20052;-76
2023/03/27 12:30:45;;;;;;;4.90;1.30;;;12.90;94.80;;;;;;4993561;28;20488;-78
2023/03/27 12:33:13;;;;;;;5.40;1.35;;;13.10;93.50;;;;;;4966930;28;20139;-81
2023/03/27 12:35:45;;;;;;;6.93;1.70;;;13.20;94.00;;;;;;4996255;28;22214;-78
2023/03/27 12:38:45;;;;;;;9.90;1.80;;;13.10;93.60;;;;;;4980808;28;20126;-76
2023/03/27 12:41:22;;;;;;;5.75;1.40;;;13.10;93.90;;;;;;4971046;28;20054;-80
2023/03/27 12:43:56;;;;;;;7.10;1.75;;;13.20;93.60;;;;;;4976224;28;20046;-77
2023/03/27 12:46:22;;;;;;;4.78;1.30;;;12.70;93.30;;;;;;4986333;28;20314;-76
2023/03/27 12:49:06;;;;;;;4.72;1.20;;;12.80;93.40;;;;;;5000494;28;20481;-77
2023/03/27 12:51:37;;;;;;;5.53;1.42;;;13.00;93.30;;;;;;4998698;28;20061;-82
2023/03/27 12:54:23;;;;;;;7.68;1.30;;;13.00;92.70;;;;;;4999127;28;20407;-77
2023/03/27 12:56:58;;;;;;;7.75;1.38;;;13.40;92.70;;;;;;4999930;28;20058;-78
2023/03/27 12:59:27;;;;;;;6.68;1.65;;;13.60;92.80;;;;;;5003201;28;20061;-76
2023/03/27 13:02:02;;;;;;;5.65;1.10;;;13.20;92.90;;;;;;4996245;28;20050;-78
2023/03/27 13:04:43;;;;;;;5.87;1.17;;;13.30;92.70;;;;;;4974187;28;20054;-78
2023/03/27 13:07:37;;;;;;;4.78;1.23;;;13.30;91.70;;;;;;4997912;28;20050;-77
2023/03/27 13:10:43;;;;;;;9.00;1.88;;;13.60;91.30;;;;;;4997161;28;20486;-77
2023/03/27 13:13:11;;;;;;;6.97;1.70;;;13.90;91.50;;;;;;4977214;28;20453;-81
2023/03/27 13:15:52;;;;;;;6.10;1.60;;;14.10;92.00;;;;;;4986808;28;20044;-78
2023/03/27 13:18:38;;;;;;;5.45;1.35;;;14.40;91.90;;;;;;4983266;28;20589;-77
2023/03/27 13:21:38;;;;;;;8.05;1.73;;;14.20;91.30;;;;;;5000261;28;20057;-76
2023/03/27 13:24:42;;;;;;;5.05;1.23;;;14.30;91.80;;;;;;4988492;28;20073;-77
2023/03/27 13:27:42;;;;;;;8.57;1.60;;;13.90;92.20;;;;;;4981441;28;20145;-78